sensor_id;sensor_type;location;lat;lon;timestamp;temperature;humidity
28358;DHT22;15605;48.114;11.522;2024-03-22T00:01:24;13.90;69.90
28358;DHT22;15605;48.114;11.522;2024-03-22T00:04:17;13.90;69.70
28358;DHT22;15605;48.114;11.522;2024-03-22T00:11:14;13.80;69.80
28358;DHT22;15605;48.114;11.522;2024-03-22T00:13:45;13.80;69.90
28358;DHT22;15605;48.114;11.522;2024-03-22T00:16:31;13.80;69.80
28358;DHT22;15605;48.114;11.522;2024-03-22T00:19:09;13.80;69.80
28358;DHT22;15605;48.114;11.522;2024-03-22T00:21:56;13.90;69.80
28358;DHT22;15605;48.114;11.522;2024-03-22T00:24:33;13.90;69.80
28358;DHT22;15605;48.114;11.522;2024-03-22T00:27:12;13.90;69.70
28358;DHT22;15605;48.114;11.522;2024-03-22T00:29:49;13.90;69.70
28358;DHT22;15605;48.114;11.522;2024-03-22T00:35:59;13.80;69.70
28358;DHT22;15605;48.114;11.522;2024-03-22T00:38:43;13.80;69.60
28358;DHT22;15605;48.114;11.522;2024-03-22T00:41:28;13.80;69.50
28358;DHT22;15605;48.114;11.522;2024-03-22T00:44:08;13.90;70.30
28358;DHT22;15605;48.114;11.522;2024-03-22T00:46:44;13.90;69.50
28358;DHT22;15605;48.114;11.522;2024-03-22T00:49:24;13.80;69.50
28358;DHT22;15605;48.114;11.522;2024-03-22T00:52:05;13.80;69.50
28358;DHT22;15605;48.114;11.522;2024-03-22T00:54:42;13.80;69.60
28358;DHT22;15605;48.114;11.522;2024-03-22T00:57:23;13.80;69.50
28358;DHT22;15605;48.114;11.522;2024-03-22T01:00:09;13.80;69.50
28358;DHT22;15605;48.114;11.522;2024-03-22T01:02:51;13.80;69.40
28358;DHT22;15605;48.114;11.522;2024-03-22T01:05:30;13.80;69.40
28358;DHT22;15605;48.114;11.522;2024-03-22T01:08:25;13.80;69.40
28358;DHT22;15605;48.114;11.522;2024-03-22T01:11:26;13.80;69.30
28358;DHT22;15605;48.114;11.522;2024-03-22T01:14:05;13.80;69.30
28358;DHT22;15605;48.114;11.522;2024-03-22T01:16:47;13.90;69.30
28358;DHT22;15605;48.114;11.522;2024-03-22T01:19:40;13.80;69.30
28358;DHT22;15605;48.114;11.522;2024-03-22T01:22:19;13.80;69.30
28358;DHT22;15605;48.114;11.522;2024-03-22T01:24:57;13.80;69.20
28358;DHT22;15605;48.114;11.522;2024-03-22T01:27:35;13.80;69.20
28358;DHT22;15605;48.114;11.522;2024-03-22T01:30:47;13.90;69.20
28358;DHT22;15605;48.114;11.522;2024-03-22T01:33:43;13.80;69.10
28358;DHT22;15605;48.114;11.522;2024-03-22T01:36:26;13.80;69.10
28358;DHT22;15605;48.114;11.522;2024-03-22T01:39:20;13.80;69.10
28358;DHT22;15605;48.114;11.522;2024-03-22T01:42:07;13.80;69.10
28358;DHT22;15605;48.114;11.522;2024-03-22T01:44:43;13.80;69.10
28358;DHT22;15605;48.114;11.522;2024-03-22T01:47:28;13.80;69.10
28358;DHT22;15605;48.114;11.522;2024-03-22T01:50:19;13.80;69.10
28358;DHT22;15605;48.114;11.522;2024-03-22T01:53:04;13.80;68.90
28358;DHT22;15605;48.114;11.522;2024-03-22T01:55:57;13.80;68.80
28358;DHT22;15605;48.114;11.522;2024-03-22T02:02:08;13.80;68.80
28358;DHT22;15605;48.114;11.522;2024-03-22T02:04:55;13.90;68.70
28358;DHT22;15605;48.114;11.522;2024-03-22T02:07:34;13.80;68.80
28358;DHT22;15605;48.114;11.522;2024-03-22T02:10:29;13.80;68.70
28358;DHT22;15605;48.114;11.522;2024-03-22T02:13:13;13.90;68.80
28358;DHT22;15605;48.114;11.522;2024-03-22T02:15:58;13.90;68.60
28358;DHT22;15605;48.114;11.522;2024-03-22T02:18:33;13.80;68.60
28358;DHT22;15605;48.114;11.522;2024-03-22T02:21:53;13.80;68.60
28358;DHT22;15605;48.114;11.522;2024-03-22T02:24:30;13.90;68.50
28358;DHT22;15605;48.114;11.522;2024-03-22T02:27:14;13.80;68.50
28358;DHT22;15605;48.114;11.522;2024-03-22T02:30:02;13.80;68.50
28358;DHT22;15605;48.114;11.522;2024-03-22T02:32:38;13.80;68.50
28358;DHT22;15605;48.114;11.522;2024-03-22T02:35:20;13.80;69.20
28358;DHT22;15605;48.114;11.522;2024-03-22T02:38:06;13.80;68.50
28358;DHT22;15605;48.114;11.522;2024-03-22T02:40:51;13.80;68.50
28358;DHT22;15605;48.114;11.522;2024-03-22T02:43:37;13.80;68.30
28358;DHT22;15605;48.114;11.522;2024-03-22T02:46:13;13.80;68.30
28358;DHT22;15605;48.114;11.522;2024-03-22T02:48:52;13.80;68.20
28358;DHT22;15605;48.114;11.522;2024-03-22T02:51:27;13.80;68.10
28358;DHT22;15605;48.114;11.522;2024-03-22T02:54:26;13.90;68.20
28358;DHT22;15605;48.114;11.522;2024-03-22T02:57:23;13.90;68.10
28358;DHT22;15605;48.114;11.522;2024-03-22T03:00:43;13.80;68.00
28358;DHT22;15605;48.114;11.522;2024-03-22T03:03:20;13.90;68.00
28358;DHT22;15605;48.114;11.522;2024-03-22T03:06:10;13.90;67.80
28358;DHT22;15605;48.114;11.522;2024-03-22T03:08:59;13.90;67.80
28358;DHT22;15605;48.114;11.522;2024-03-22T03:11:47;13.90;67.90
28358;DHT22;15605;48.114;11.522;2024-03-22T03:14:23;13.80;67.80
28358;DHT22;15605;48.114;11.522;2024-03-22T03:17:11;13.80;67.80
28358;DHT22;15605;48.114;11.522;2024-03-22T03:19:56;13.80;67.80
28358;DHT22;15605;48.114;11.522;2024-03-22T03:22:51;13.80;67.70
28358;DHT22;15605;48.114;11.522;2024-03-22T03:25:45;13.80;67.80
28358;DHT22;15605;48.114;11.522;2024-03-22T03:29:04;13.80;67.60
28358;DHT22;15605;48.114;11.522;2024-03-22T03:32:24;13.90;67.80
28358;DHT22;15605;48.114;11.522;2024-03-22T03:35:02;13.80;67.50
28358;DHT22;15605;48.114;11.522;2024-03-22T03:37:38;13.90;67.60
28358;DHT22;15605;48.114;11.522;2024-03-22T03:40:14;13.80;67.50
28358;DHT22;15605;48.114;11.522;2024-03-22T03:43:22;13.80;67.50
28358;DHT22;15605;48.114;11.522;2024-03-22T03:46:19;13.80;67.40
28358;DHT22;15605;48.114;11.522;2024-03-22T03:49:22;13.80;67.40
28358;DHT22;15605;48.114;11.522;2024-03-22T03:52:11;13.80;67.40
28358;DHT22;15605;48.114;11.522;2024-03-22T03:55:01;13.80;67.40
28358;DHT22;15605;48.114;11.522;2024-03-22T03:58:04;13.80;67.30
28358;DHT22;15605;48.114;11.522;2024-03-22T04:00:51;13.80;67.20
28358;DHT22;15605;48.114;11.522;2024-03-22T04:04:08;13.80;67.20
28358;DHT22;15605;48.114;11.522;2024-03-22T04:06:49;13.80;67.30
28358;DHT22;15605;48.114;11.522;2024-03-22T04:09:46;13.80;67.30
28358;DHT22;15605;48.114;11.522;2024-03-22T04:12:20;13.80;67.20
28358;DHT22;15605;48.114;11.522;2024-03-22T04:15:10;13.80;67.20
28358;DHT22;15605;48.114;11.522;2024-03-22T04:17:52;13.80;67.20
28358;DHT22;15605;48.114;11.522;2024-03-22T04:20:31;13.80;67.20
28358;DHT22;15605;48.114;11.522;2024-03-22T04:23:25;13.80;67.30
28358;DHT22;15605;48.114;11.522;2024-03-22T04:26:17;13.80;67.20
28358;DHT22;15605;48.114;11.522;2024-03-22T04:28:53;13.80;67.20
28358;DHT22;15605;48.114;11.522;2024-03-22T04:31:30;13.80;67.20
28358;DHT22;15605;48.114;11.522;2024-03-22T04:34:33;13.80;67.30
28358;DHT22;15605;48.114;11.522;2024-03-22T04:37:37;13.80;67.30
28358;DHT22;15605;48.114;11.522;2024-03-22T04:40:51;13.80;67.20
28358;DHT22;15605;48.114;11.522;2024-03-22T04:44:22;13.80;67.10
28358;DHT22;15605;48.114;11.522;2024-03-22T04:47:04;13.80;67.10
28358;DHT22;15605;48.114;11.522;2024-03-22T04:49:38;13.80;67.10
28358;DHT22;15605;48.114;11.522;2024-03-22T04:52:14;13.80;67.10
28358;DHT22;15605;48.114;11.522;2024-03-22T04:54:47;13.80;67.10
28358;DHT22;15605;48.114;11.522;2024-03-22T05:00:46;13.80;67.10
28358;DHT22;15605;48.114;11.522;2024-03-22T05:04:00;13.80;67.00
28358;DHT22;15605;48.114;11.522;2024-03-22T05:06:34;13.80;67.00
28358;DHT22;15605;48.114;11.522;2024-03-22T05:12:33;13.80;66.90
28358;DHT22;15605;48.114;11.522;2024-03-22T05:22:06;13.80;67.00
28358;DHT22;15605;48.114;11.522;2024-03-22T05:24:56;13.80;66.90
28358;DHT22;15605;48.114;11.522;2024-03-22T05:27:27;13.80;66.90
28358;DHT22;15605;48.114;11.522;2024-03-22T05:30:18;13.80;67.00
28358;DHT22;15605;48.114;11.522;2024-03-22T05:33:26;13.80;67.00
28358;DHT22;15605;48.114;11.522;2024-03-22T05:36:02;13.80;67.10
28358;DHT22;15605;48.114;11.522;2024-03-22T05:38:32;13.80;67.10
28358;DHT22;15605;48.114;11.522;2024-03-22T05:44:59;13.80;67.20
28358;DHT22;15605;48.114;11.522;2024-03-22T05:47:32;13.80;67.10
28358;DHT22;15605;48.114;11.522;2024-03-22T05:50:32;13.80;67.10
28358;DHT22;15605;48.114;11.522;2024-03-22T05:53:04;13.80;67.20
28358;DHT22;15605;48.114;11.522;2024-03-22T05:56:00;13.80;67.20
28358;DHT22;15605;48.114;11.522;2024-03-22T05:58:44;13.80;67.20
28358;DHT22;15605;48.114;11.522;2024-03-22T07:09:26;13.40;69.80
28358;DHT22;15605;48.114;11.522;2024-03-22T07:19:53;13.60;68.90
28358;DHT22;15605;48.114;11.522;2024-03-22T07:26:12;13.80;68.30
28358;DHT22;15605;48.114;11.522;2024-03-22T07:33:11;13.80;67.90
28358;DHT22;15605;48.114;11.522;2024-03-22T07:35:45;13.80;67.90
28358;DHT22;15605;48.114;11.522;2024-03-22T07:38:17;13.80;67.80
28358;DHT22;15605;48.114;11.522;2024-03-22T07:40:56;13.80;68.00
28358;DHT22;15605;48.114;11.522;2024-03-22T07:43:27;13.80;67.90
28358;DHT22;15605;48.114;11.522;2024-03-22T07:45:58;13.80;67.70
28358;DHT22;15605;48.114;11.522;2024-03-22T07:48:29;13.90;67.60
28358;DHT22;15605;48.114;11.522;2024-03-22T07:51:00;13.90;67.60
28358;DHT22;15605;48.114;11.522;2024-03-22T07:54:17;14.00;67.50
28358;DHT22;15605;48.114;11.522;2024-03-22T07:57:14;14.00;67.50
28358;DHT22;15605;48.114;11.522;2024-03-22T08:00:22;14.00;67.40
28358;DHT22;15605;48.114;11.522;2024-03-22T08:07:43;14.00;67.60
28358;DHT22;15605;48.114;11.522;2024-03-22T08:10:24;14.00;67.70
28358;DHT22;15605;48.114;11.522;2024-03-22T08:13:12;13.90;67.80
28358;DHT22;15605;48.114;11.522;2024-03-22T08:15:43;13.90;67.90
28358;DHT22;15605;48.114;11.522;2024-03-22T08:18:16;14.00;67.80
28358;DHT22;15605;48.114;11.522;2024-03-22T08:20:51;14.00;67.50
28358;DHT22;15605;48.114;11.522;2024-03-22T08:24:05;14.00;67.30
28358;DHT22;15605;48.114;11.522;2024-03-22T08:26:35;14.10;67.20
28358;DHT22;15605;48.114;11.522;2024-03-22T08:29:05;14.10;67.10
28358;DHT22;15605;48.114;11.522;2024-03-22T08:31:56;14.10;67.10
28358;DHT22;15605;48.114;11.522;2024-03-22T08:34:26;14.10;67.10
28358;DHT22;15605;48.114;11.522;2024-03-22T08:40:21;14.10;67.10
28358;DHT22;15605;48.114;11.522;2024-03-22T08:42:51;14.20;67.10
28358;DHT22;15605;48.114;11.522;2024-03-22T08:48:57;14.20;67.20
28358;DHT22;15605;48.114;11.522;2024-03-22T08:54:56;14.20;67.20
28358;DHT22;15605;48.114;11.522;2024-03-22T08:57:27;14.20;67.10
28358;DHT22;15605;48.114;11.522;2024-03-22T08:59:57;14.20;67.20
28358;DHT22;15605;48.114;11.522;2024-03-22T09:05:52;14.20;67.30
28358;DHT22;15605;48.114;11.522;2024-03-22T09:08:23;14.20;67.30
28358;DHT22;15605;48.114;11.522;2024-03-22T09:10:55;14.20;67.30
28358;DHT22;15605;48.114;11.522;2024-03-22T09:13:29;14.20;67.40
28358;DHT22;15605;48.114;11.522;2024-03-22T09:16:01;14.10;67.40
28358;DHT22;15605;48.114;11.522;2024-03-22T09:18:33;14.10;67.50
28358;DHT22;15605;48.114;11.522;2024-03-22T09:21:05;14.10;67.50
28358;DHT22;15605;48.114;11.522;2024-03-22T09:24:08;14.10;67.40
28358;DHT22;15605;48.114;11.522;2024-03-22T09:26:41;14.10;67.50
28358;DHT22;15605;48.114;11.522;2024-03-22T09:29:15;14.10;67.50
28358;DHT22;15605;48.114;11.522;2024-03-22T09:31:47;14.10;67.40
28358;DHT22;15605;48.114;11.522;2024-03-22T09:34:21;14.10;67.70
28358;DHT22;15605;48.114;11.522;2024-03-22T09:36:51;14.10;67.70
28358;DHT22;15605;48.114;11.522;2024-03-22T09:39:25;14.10;67.70
28358;DHT22;15605;48.114;11.522;2024-03-22T09:41:59;14.10;67.70
28358;DHT22;15605;48.114;11.522;2024-03-22T09:44:53;14.00;67.70
28358;DHT22;15605;48.114;11.522;2024-03-22T09:51:28;14.10;67.90
28358;DHT22;15605;48.114;11.522;2024-03-22T09:54:06;14.00;67.80
28358;DHT22;15605;48.114;11.522;2024-03-22T09:56:49;14.00;68.00
28358;DHT22;15605;48.114;11.522;2024-03-22T09:59:31;14.00;67.80
28358;DHT22;15605;48.114;11.522;2024-03-22T10:02:05;14.10;67.90
28358;DHT22;15605;48.114;11.522;2024-03-22T10:04:58;14.10;67.60
28358;DHT22;15605;48.114;11.522;2024-03-22T10:08:11;14.20;67.50
28358;DHT22;15605;48.114;11.522;2024-03-22T10:10:51;14.10;67.60
28358;DHT22;15605;48.114;11.522;2024-03-22T10:17:27;14.20;67.30
28358;DHT22;15605;48.114;11.522;2024-03-22T10:23:32;14.20;67.20
28358;DHT22;15605;48.114;11.522;2024-03-22T10:26:04;14.20;67.10
28358;DHT22;15605;48.114;11.522;2024-03-22T10:28:36;14.20;67.00
28358;DHT22;15605;48.114;11.522;2024-03-22T10:31:29;14.20;66.90
28358;DHT22;15605;48.114;11.522;2024-03-22T10:34:14;14.20;66.90
28358;DHT22;15605;48.114;11.522;2024-03-22T10:36:47;14.20;67.00
28358;DHT22;15605;48.114;11.522;2024-03-22T10:43:37;14.20;66.90
28358;DHT22;15605;48.114;11.522;2024-03-22T10:46:09;14.20;67.10
28358;DHT22;15605;48.114;11.522;2024-03-22T10:48:42;14.20;67.00
28358;DHT22;15605;48.114;11.522;2024-03-22T10:51:14;14.20;67.00
28358;DHT22;15605;48.114;11.522;2024-03-22T10:54:33;14.20;67.80
28358;DHT22;15605;48.114;11.522;2024-03-22T10:57:05;14.20;67.10
28358;DHT22;15605;48.114;11.522;2024-03-22T10:59:38;14.20;67.00
28358;DHT22;15605;48.114;11.522;2024-03-22T11:05:17;14.20;67.30
28358;DHT22;15605;48.114;11.522;2024-03-22T11:08:01;14.20;67.30
28358;DHT22;15605;48.114;11.522;2024-03-22T11:10:55;14.20;67.20
28358;DHT22;15605;48.114;11.522;2024-03-22T11:13:47;14.20;67.10
28358;DHT22;15605;48.114;11.522;2024-03-22T11:16:21;14.20;67.20
28358;DHT22;15605;48.114;11.522;2024-03-22T11:19:27;14.20;67.20
28358;DHT22;15605;48.114;11.522;2024-03-22T11:21:58;14.20;67.20
28358;DHT22;15605;48.114;11.522;2024-03-22T11:24:31;14.20;67.20
28358;DHT22;15605;48.114;11.522;2024-03-22T11:27:11;14.20;67.20
28358;DHT22;15605;48.114;11.522;2024-03-22T11:29:46;14.20;67.20
28358;DHT22;15605;48.114;11.522;2024-03-22T11:32:24;14.20;67.10
28358;DHT22;15605;48.114;11.522;2024-03-22T11:35:18;14.20;67.30
28358;DHT22;15605;48.114;11.522;2024-03-22T11:38:13;14.10;67.30
28358;DHT22;15605;48.114;11.522;2024-03-22T11:40:46;14.10;67.30
28358;DHT22;15605;48.114;11.522;2024-03-22T11:44:11;14.10;67.40
28358;DHT22;15605;48.114;11.522;2024-03-22T11:47:04;14.10;67.60
28358;DHT22;15605;48.114;11.522;2024-03-22T11:50:37;14.10;67.60
28358;DHT22;15605;48.114;11.522;2024-03-22T11:53:11;14.10;67.60
28358;DHT22;15605;48.114;11.522;2024-03-22T11:55:41;14.10;67.50
28358;DHT22;15605;48.114;11.522;2024-03-22T11:58:31;14.10;67.40
28358;DHT22;15605;48.114;11.522;2024-03-22T12:01:06;14.10;67.30
28358;DHT22;15605;48.114;11.522;2024-03-22T12:03:38;14.10;67.40
28358;DHT22;15605;48.114;11.522;2024-03-22T12:06:33;14.10;67.30
28358;DHT22;15605;48.114;11.522;2024-03-22T12:09:46;14.10;67.30
28358;DHT22;15605;48.114;11.522;2024-03-22T12:12:32;14.10;67.20
28358;DHT22;15605;48.114;11.522;2024-03-22T12:15:11;14.20;67.20
28358;DHT22;15605;48.114;11.522;2024-03-22T12:17:48;14.20;67.20
28358;DHT22;15605;48.114;11.522;2024-03-22T12:20:30;14.20;67.20
28358;DHT22;15605;48.114;11.522;2024-03-22T12:23:00;14.20;67.30
28358;DHT22;15605;48.114;11.522;2024-03-22T12:25:34;14.10;67.30
28358;DHT22;15605;48.114;11.522;2024-03-22T12:28:07;14.10;67.40
28358;DHT22;15605;48.114;11.522;2024-03-22T12:30:59;14.10;67.60
28358;DHT22;15605;48.114;11.522;2024-03-22T12:33:30;14.10;67.60
28358;DHT22;15605;48.114;11.522;2024-03-22T12:36:22;14.10;67.70
28358;DHT22;15605;48.114;11.522;2024-03-22T12:39:13;14.00;68.60
28358;DHT22;15605;48.114;11.522;2024-03-22T12:42:35;14.00;68.00
28358;DHT22;15605;48.114;11.522;2024-03-22T12:45:30;14.00;67.90
28358;DHT22;15605;48.114;11.522;2024-03-22T12:48:43;14.00;68.00
28358;DHT22;15605;48.114;11.522;2024-03-22T12:54:46;13.90;68.10
28358;DHT22;15605;48.114;11.522;2024-03-22T13:00:59;13.90;68.10
28358;DHT22;15605;48.114;11.522;2024-03-22T13:03:36;14.00;68.00
28358;DHT22;15605;48.114;11.522;2024-03-22T13:09:49;14.00;67.70
28358;DHT22;15605;48.114;11.522;2024-03-22T13:12:23;14.10;67.70
28358;DHT22;15605;48.114;11.522;2024-03-22T13:14:54;14.10;67.70
28358;DHT22;15605;48.114;11.522;2024-03-22T13:17:26;14.00;67.60
28358;DHT22;15605;48.114;11.522;2024-03-22T13:20:01;14.00;67.60
28358;DHT22;15605;48.114;11.522;2024-03-22T13:23:22;14.10;67.60
28358;DHT22;15605;48.114;11.522;2024-03-22T13:26:54;14.10;67.70
28358;DHT22;15605;48.114;11.522;2024-03-22T13:29:29;14.00;67.80
28358;DHT22;15605;48.114;11.522;2024-03-22T13:32:05;14.00;67.90
28358;DHT22;15605;48.114;11.522;2024-03-22T13:35:22;14.00;67.90
28358;DHT22;15605;48.114;11.522;2024-03-22T13:38:58;14.00;67.80
28358;DHT22;15605;48.114;11.522;2024-03-22T13:41:43;14.10;67.60
28358;DHT22;15605;48.114;11.522;2024-03-22T13:44:14;14.10;67.30
28358;DHT22;15605;48.114;11.522;2024-03-22T13:46:49;14.10;67.30
28358;DHT22;15605;48.114;11.522;2024-03-22T13:49:40;14.10;67.20
28358;DHT22;15605;48.114;11.522;2024-03-22T13:52:12;14.20;67.20
28358;DHT22;15605;48.114;11.522;2024-03-22T13:54:43;14.10;67.20
28358;DHT22;15605;48.114;11.522;2024-03-22T13:57:15;14.10;67.30
28358;DHT22;15605;48.114;11.522;2024-03-22T13:59:56;14.10;67.60
28358;DHT22;15605;48.114;11.522;2024-03-22T14:06:24;14.10;67.70
28358;DHT22;15605;48.114;11.522;2024-03-22T14:09:17;14.00;67.80
28358;DHT22;15605;48.114;11.522;2024-03-22T14:12:29;14.00;68.00
28358;DHT22;15605;48.114;11.522;2024-03-22T14:15:33;14.00;68.10
28358;DHT22;15605;48.114;11.522;2024-03-22T14:18:31;14.00;68.20
28358;DHT22;15605;48.114;11.522;2024-03-22T14:21:29;13.90;68.20
28358;DHT22;15605;48.114;11.522;2024-03-22T14:26:59;14.00;68.20
28358;DHT22;15605;48.114;11.522;2024-03-22T14:29:53;14.00;68.30
28358;DHT22;15605;48.114;11.522;2024-03-22T14:32:26;14.00;68.30
28358;DHT22;15605;48.114;11.522;2024-03-22T14:35:02;14.00;68.30
28358;DHT22;15605;48.114;11.522;2024-03-22T14:37:33;14.00;68.30
28358;DHT22;15605;48.114;11.522;2024-03-22T14:40:19;14.00;68.10
28358;DHT22;15605;48.114;11.522;2024-03-22T14:43:03;14.00;68.10
28358;DHT22;15605;48.114;11.522;2024-03-22T14:49:14;14.00;67.90
28358;DHT22;15605;48.114;11.522;2024-03-22T15:05:10;14.20;67.30
28358;DHT22;15605;48.114;11.522;2024-03-22T15:14:55;14.20;66.20
28358;DHT22;15605;48.114;11.522;2024-03-22T15:25:05;14.20;65.30
28358;DHT22;15605;48.114;11.522;2024-03-22T15:44:26;14.30;63.80
28358;DHT22;15605;48.114;11.522;2024-03-22T15:46:56;14.20;63.60
28358;DHT22;15605;48.114;11.522;2024-03-22T15:49:31;14.30;64.40
28358;DHT22;15605;48.114;11.522;2024-03-22T15:52:12;14.30;64.40
28358;DHT22;15605;48.114;11.522;2024-03-22T15:54:44;14.30;64.00
28358;DHT22;15605;48.114;11.522;2024-03-22T15:57:22;14.40;64.10
28358;DHT22;15605;48.114;11.522;2024-03-22T16:00:14;14.30;63.80
28358;DHT22;15605;48.114;11.522;2024-03-22T16:02:55;14.30;63.80
28358;DHT22;15605;48.114;11.522;2024-03-22T16:06:15;14.30;63.90
28358;DHT22;15605;48.114;11.522;2024-03-22T16:09:10;14.30;64.10
28358;DHT22;15605;48.114;11.522;2024-03-22T16:11:52;14.30;64.10
28358;DHT22;15605;48.114;11.522;2024-03-22T16:14:36;14.30;64.30
28358;DHT22;15605;48.114;11.522;2024-03-22T16:17:27;14.30;64.40
28358;DHT22;15605;48.114;11.522;2024-03-22T16:20:12;14.20;64.50
28358;DHT22;15605;48.114;11.522;2024-03-22T16:22:44;14.20;64.70
28358;DHT22;15605;48.114;11.522;2024-03-22T16:25:21;14.20;64.60
28358;DHT22;15605;48.114;11.522;2024-03-22T16:28:07;14.20;64.70
28358;DHT22;15605;48.114;11.522;2024-03-22T16:31:35;14.20;64.70
28358;DHT22;15605;48.114;11.522;2024-03-22T16:34:55;14.20;65.00
28358;DHT22;15605;48.114;11.522;2024-03-22T16:37:50;14.20;65.00
28358;DHT22;15605;48.114;11.522;2024-03-22T16:40:24;14.20;65.20
28358;DHT22;15605;48.114;11.522;2024-03-22T16:43:41;14.10;65.20
28358;DHT22;15605;48.114;11.522;2024-03-22T16:50:10;14.10;65.50
28358;DHT22;15605;48.114;11.522;2024-03-22T16:53:07;14.10;65.70
28358;DHT22;15605;48.114;11.522;2024-03-22T16:55:40;14.10;65.60
28358;DHT22;15605;48.114;11.522;2024-03-22T16:58:11;14.00;65.60
28358;DHT22;15605;48.114;11.522;2024-03-22T17:00:42;14.10;65.60
28358;DHT22;15605;48.114;11.522;2024-03-22T17:04:07;14.10;65.70
28358;DHT22;15605;48.114;11.522;2024-03-22T17:10:40;14.00;66.00
28358;DHT22;15605;48.114;11.522;2024-03-22T17:14:18;14.00;66.10
28358;DHT22;15605;48.114;11.522;2024-03-22T17:17:39;14.00;66.00
28358;DHT22;15605;48.114;11.522;2024-03-22T17:21:17;14.00;66.10
28358;DHT22;15605;48.114;11.522;2024-03-22T17:23:53;14.00;66.10
28358;DHT22;15605;48.114;11.522;2024-03-22T17:26:30;14.00;65.90
28358;DHT22;15605;48.114;11.522;2024-03-22T17:29:02;14.00;65.80
28358;DHT22;15605;48.114;11.522;2024-03-22T17:31:35;14.10;65.70
28358;DHT22;15605;48.114;11.522;2024-03-22T17:37:12;14.10;65.50
28358;DHT22;15605;48.114;11.522;2024-03-22T17:39:48;14.10;65.40
28358;DHT22;15605;48.114;11.522;2024-03-22T17:42:18;14.10;65.40
28358;DHT22;15605;48.114;11.522;2024-03-22T17:44:49;14.10;65.50
28358;DHT22;15605;48.114;11.522;2024-03-22T17:48:20;14.10;65.50
28358;DHT22;15605;48.114;11.522;2024-03-22T17:50:58;14.10;65.40
28358;DHT22;15605;48.114;11.522;2024-03-22T17:53:51;14.10;65.40
28358;DHT22;15605;48.114;11.522;2024-03-22T17:56:23;14.10;65.40
28358;DHT22;15605;48.114;11.522;2024-03-22T17:58:54;14.10;65.40
28358;DHT22;15605;48.114;11.522;2024-03-22T18:01:25;14.10;65.50
28358;DHT22;15605;48.114;11.522;2024-03-22T18:03:57;14.10;65.40
28358;DHT22;15605;48.114;11.522;2024-03-22T18:06:49;14.10;65.40
28358;DHT22;15605;48.114;11.522;2024-03-22T18:09:23;14.10;65.30
28358;DHT22;15605;48.114;11.522;2024-03-22T18:11:54;14.10;65.20
28358;DHT22;15605;48.114;11.522;2024-03-22T18:14:24;14.10;65.10
28358;DHT22;15605;48.114;11.522;2024-03-22T18:16:55;14.10;65.20
28358;DHT22;15605;48.114;11.522;2024-03-22T18:19:26;14.10;65.20
28358;DHT22;15605;48.114;11.522;2024-03-22T18:25:05;14.20;65.20
28358;DHT22;15605;48.114;11.522;2024-03-22T18:27:50;14.20;65.20
28358;DHT22;15605;48.114;11.522;2024-03-22T18:31:14;14.10;65.10
28358;DHT22;15605;48.114;11.522;2024-03-22T18:34:31;14.10;65.10
28358;DHT22;15605;48.114;11.522;2024-03-22T18:37:42;14.10;65.10
28358;DHT22;15605;48.114;11.522;2024-03-22T18:40:19;14.10;65.20
28358;DHT22;15605;48.114;11.522;2024-03-22T18:43:21;14.10;65.20
28358;DHT22;15605;48.114;11.522;2024-03-22T18:48:39;14.10;65.30
28358;DHT22;15605;48.114;11.522;2024-03-22T18:51:26;14.20;65.40
28358;DHT22;15605;48.114;11.522;2024-03-22T18:54:10;14.10;65.40
28358;DHT22;15605;48.114;11.522;2024-03-22T18:57:02;14.10;65.50
28358;DHT22;15605;48.114;11.522;2024-03-22T18:59:47;14.10;65.70
28358;DHT22;15605;48.114;11.522;2024-03-22T19:02:20;14.00;65.70
28358;DHT22;15605;48.114;11.522;2024-03-22T19:04:57;14.00;65.70
28358;DHT22;15605;48.114;11.522;2024-03-22T19:07:37;14.00;65.70
28358;DHT22;15605;48.114;11.522;2024-03-22T19:10:07;14.10;65.80
28358;DHT22;15605;48.114;11.522;2024-03-22T19:12:40;14.10;65.70
28358;DHT22;15605;48.114;11.522;2024-03-22T19:15:21;14.10;65.80
28358;DHT22;15605;48.114;11.522;2024-03-22T19:18:35;14.10;65.90
28358;DHT22;15605;48.114;11.522;2024-03-22T19:21:22;14.00;65.90
28358;DHT22;15605;48.114;11.522;2024-03-22T19:24:28;14.10;66.00
28358;DHT22;15605;48.114;11.522;2024-03-22T19:27:10;14.00;65.80
28358;DHT22;15605;48.114;11.522;2024-03-22T19:33:23;14.00;66.10
28358;DHT22;15605;48.114;11.522;2024-03-22T19:36:01;14.00;66.20
28358;DHT22;15605;48.114;11.522;2024-03-22T19:38:35;14.00;66.10
28358;DHT22;15605;48.114;11.522;2024-03-22T19:41:05;14.00;66.00
28358;DHT22;15605;48.114;11.522;2024-03-22T19:43:35;14.00;66.90
28358;DHT22;15605;48.114;11.522;2024-03-22T19:46:50;14.10;65.90
28358;DHT22;15605;48.114;11.522;2024-03-22T19:49:29;14.20;65.70
28358;DHT22;15605;48.114;11.522;2024-03-22T19:53:33;14.20;65.50
28358;DHT22;15605;48.114;11.522;2024-03-22T19:56:49;14.30;65.50
28358;DHT22;15605;48.114;11.522;2024-03-22T20:00:14;14.30;65.20
28358;DHT22;15605;48.114;11.522;2024-03-22T20:03:11;14.30;65.00
28358;DHT22;15605;48.114;11.522;2024-03-22T20:09:09;14.50;64.70
28358;DHT22;15605;48.114;11.522;2024-03-22T20:11:56;14.50;64.40
28358;DHT22;15605;48.114;11.522;2024-03-22T20:14:30;14.60;64.40
28358;DHT22;15605;48.114;11.522;2024-03-22T20:17:02;14.60;64.30
28358;DHT22;15605;48.114;11.522;2024-03-22T20:19:41;14.60;64.30
28358;DHT22;15605;48.114;11.522;2024-03-22T20:22:14;14.60;64.40
28358;DHT22;15605;48.114;11.522;2024-03-22T20:25:01;14.50;64.50
28358;DHT22;15605;48.114;11.522;2024-03-22T20:30:38;14.60;64.60
28358;DHT22;15605;48.114;11.522;2024-03-22T20:33:26;14.50;64.70
